createdAt,value
2018-05-12T00:00:26.080Z,54.07
2018-05-12T00:02:56.840Z,54.63
2018-05-12T00:05:27.356Z,58.73
2018-05-12T00:08:02.207Z,57.83
2018-05-12T00:10:32.405Z,66.37
2018-05-12T00:13:02.030Z,72.10
2018-05-12T00:15:31.951Z,73.70
2018-05-12T00:18:01.881Z,70.33
2018-05-12T00:20:31.503Z,82.03
2018-05-12T00:23:01.222Z,73.10
2018-05-12T00:25:31.191Z,76.33
2018-05-12T00:28:02.246Z,70.03
2018-05-12T00:30:32.044Z,65.90
2018-05-12T00:33:01.891Z,41.40
2018-05-12T00:35:33.329Z,40.80
2018-05-12T00:38:03.240Z,32.33
2018-05-12T00:40:36.411Z,28.40
2018-05-12T00:43:06.372Z,30.70
2018-05-12T00:45:36.180Z,32.23
2018-05-12T00:48:07.625Z,29.00
2018-05-12T00:50:37.501Z,28.70
2018-05-12T00:53:07.440Z,29.10
2018-05-12T00:55:38.083Z,32.00
2018-05-12T00:58:07.774Z,33.03
2018-05-12T01:00:37.904Z,34.80
2018-05-12T01:03:08.550Z,29.70
2018-05-12T01:05:38.487Z,234.63
2018-05-12T01:08:10.710Z,28.90
2018-05-12T01:10:40.740Z,26.07
2018-05-12T01:13:10.542Z,38.30
2018-05-12T01:15:40.895Z,40.70
2018-05-12T01:18:10.579Z,37.73
2018-05-12T01:20:41.253Z,46.57
2018-05-12T01:23:11.191Z,44.10
2018-05-12T01:25:40.834Z,36.50
2018-05-12T01:28:10.764Z,36.13
2018-05-12T01:30:40.680Z,33.90
2018-05-12T01:33:10.355Z,34.33
2018-05-12T01:35:40.340Z,32.03
2018-05-12T01:38:10.117Z,34.53
2018-05-12T01:40:40.852Z,38.10
2018-05-12T01:43:10.562Z,36.37
2018-05-12T01:45:41.494Z,34.23
2018-05-12T01:48:11.958Z,38.37
2018-05-12T01:50:41.664Z,41.07
2018-05-12T01:53:11.371Z,42.40
2018-05-12T01:55:41.189Z,41.53
2018-05-12T01:58:11.135Z,43.93
2018-05-12T02:00:40.905Z,48.10
2018-05-12T02:03:10.686Z,43.33
2018-05-12T02:05:42.991Z,45.70
2018-05-12T02:08:13.620Z,42.93
2018-05-12T02:10:43.210Z,40.50
2018-05-12T02:13:13.042Z,45.60
2018-05-12T02:15:43.452Z,41.87
2018-05-12T02:18:13.800Z,40.43
2018-05-12T02:20:43.569Z,41.00
2018-05-12T02:23:13.229Z,44.63
2018-05-12T02:25:44.043Z,44.67
2018-05-12T02:28:14.820Z,47.17
2018-05-12T02:30:45.411Z,47.87
2018-05-12T02:33:16.630Z,46.27
2018-05-12T02:35:50.807Z,42.87
2018-05-12T02:38:21.005Z,45.63
2018-05-12T02:40:51.348Z,49.80
2018-05-12T02:43:22.185Z,43.37
2018-05-12T02:45:55.925Z,47.70
2018-05-12T02:48:27.210Z,48.07
2018-05-12T02:50:57.357Z,47.00
2018-05-12T03:03:30.417Z,51.97
2018-05-12T03:06:01.550Z,48.90
2018-05-12T03:08:31.240Z,49.37
2018-05-12T03:11:01.166Z,42.17
2018-05-12T03:13:31.090Z,40.67
2018-05-12T03:16:00.905Z,40.43
2018-05-12T03:18:31.442Z,44.73
2018-05-12T03:21:01.268Z,38.43
2018-05-12T03:23:30.945Z,41.13
2018-05-12T03:26:01.289Z,41.83
2018-05-12T03:28:31.321Z,41.50
2018-05-12T03:31:01.706Z,40.07
2018-05-12T03:33:32.070Z,40.87
2018-05-12T03:36:01.763Z,39.17
2018-05-12T03:38:31.470Z,44.60
2018-05-12T03:41:03.052Z,40.40
2018-05-12T03:43:33.336Z,39.23
2018-05-12T03:46:02.894Z,42.80
2018-05-12T03:48:32.559Z,35.37
2018-05-12T03:51:02.241Z,41.40
2018-05-12T03:53:31.835Z,42.67
2018-05-12T03:56:01.396Z,43.83
2018-05-12T03:58:32.043Z,42.17
2018-05-12T04:01:02.105Z,44.50
2018-05-12T04:03:31.754Z,44.33
2018-05-12T04:06:19.248Z,41.53
2018-05-12T04:09:07.192Z,38.07
2018-05-12T04:11:55.045Z,33.00
2018-05-12T04:14:24.774Z,36.03
2018-05-12T04:16:55.906Z,31.43
2018-05-12T04:19:25.519Z,28.50
2018-05-12T04:21:55.280Z,27.87
2018-05-12T04:24:25.010Z,26.60
2018-05-12T04:26:55.419Z,26.97
2018-05-12T04:29:25.083Z,20.03
2018-05-12T04:31:55.954Z,21.80
2018-05-12T04:34:25.475Z,22.47
2018-05-12T04:36:55.000Z,25.27
2018-05-12T04:39:24.774Z,21.33
2018-05-12T04:41:55.459Z,19.17
2018-05-12T04:44:24.995Z,22.23
2018-05-12T04:46:55.299Z,16.87
2018-05-12T04:49:24.963Z,17.80
2018-05-12T04:51:55.542Z,15.43
2018-05-12T04:54:25.256Z,18.30
2018-05-12T04:56:55.014Z,13.97
2018-05-12T04:59:25.549Z,15.83
2018-05-12T05:01:55.053Z,12.27
2018-05-12T05:04:24.803Z,15.27
2018-05-12T05:06:54.404Z,17.17
2018-05-12T05:09:23.947Z,15.37
2018-05-12T05:11:54.002Z,12.50
2018-05-12T05:14:23.745Z,12.73
2018-05-12T05:16:53.330Z,13.00
2018-05-12T05:19:22.870Z,14.40
2018-05-12T05:21:52.884Z,10.90
2018-05-12T05:24:22.692Z,13.53
2018-05-12T05:26:53.223Z,10.00
2018-05-12T05:29:22.960Z,11.40
2018-05-12T05:31:53.454Z,14.20
2018-05-12T05:34:23.808Z,12.00
2018-05-12T05:36:54.793Z,11.97
2018-05-12T05:39:24.541Z,10.90
2018-05-12T05:41:55.709Z,13.03
2018-05-12T05:44:26.296Z,11.67
2018-05-12T05:46:56.831Z,12.57
2018-05-12T05:49:26.938Z,11.97
2018-05-12T05:51:56.679Z,17.37
2018-05-12T05:54:26.319Z,13.67
2018-05-12T05:56:55.963Z,12.73
2018-05-12T05:59:25.606Z,11.00
2018-05-12T06:01:55.365Z,9.33
2018-05-12T06:04:25.893Z,11.27
2018-05-12T06:06:55.845Z,12.00
2018-05-12T06:09:25.670Z,11.00
2018-05-12T06:11:56.194Z,9.00
2018-05-12T06:14:26.020Z,11.03
2018-05-12T06:16:57.302Z,11.97
2018-05-12T06:19:26.860Z,9.57
2018-05-12T06:21:56.792Z,9.40
2018-05-12T06:24:26.542Z,13.07
2018-05-12T06:26:57.136Z,10.77
2018-05-12T06:29:26.786Z,9.80
2018-05-12T06:31:58.157Z,12.33
2018-05-12T06:34:34.762Z,9.67
2018-05-12T06:37:08.882Z,12.00
2018-05-12T06:39:40.058Z,11.13
2018-05-12T06:42:10.721Z,12.40
2018-05-12T06:44:41.644Z,12.23
2018-05-12T06:47:12.681Z,13.67
2018-05-12T06:49:43.529Z,13.90
2018-05-12T06:52:13.887Z,14.13
2018-05-12T06:54:43.842Z,14.80
2018-05-12T06:57:13.555Z,19.17
2018-05-12T06:59:43.743Z,14.20
2018-05-12T07:02:13.463Z,15.73
2018-05-12T07:04:43.284Z,14.00
2018-05-12T07:07:12.962Z,19.53
2018-05-12T07:09:42.667Z,16.57
2018-05-12T07:12:12.757Z,17.17
2018-05-12T07:14:42.175Z,15.23
2018-05-12T07:17:12.065Z,19.70
2018-05-12T07:19:41.577Z,15.93
2018-05-12T07:22:11.116Z,15.43
2018-05-12T07:24:40.839Z,19.60
2018-05-12T07:27:11.139Z,22.17
2018-05-12T07:29:41.561Z,24.33
2018-05-12T07:32:12.022Z,16.70
2018-05-12T07:34:41.958Z,12.73
2018-05-12T07:37:11.790Z,11.17
2018-05-12T07:39:41.482Z,12.13
2018-05-12T07:42:11.410Z,12.13
2018-05-12T07:44:40.920Z,11.00
2018-05-12T07:47:10.716Z,10.73
2018-05-12T07:49:40.230Z,11.10
2018-05-12T07:52:09.932Z,14.10
2018-05-12T07:54:39.743Z,12.30
2018-05-12T07:57:09.433Z,12.03
2018-05-12T07:59:40.256Z,9.93
2018-05-12T08:02:10.657Z,13.67
2018-05-12T08:04:42.420Z,12.07
2018-05-12T08:07:22.638Z,27.00
2018-05-12T08:09:53.777Z,15.43
2018-05-12T08:12:23.364Z,9.83
2018-05-12T08:14:53.649Z,10.13
2018-05-12T08:17:23.267Z,10.80
2018-05-12T08:19:53.676Z,9.43
2018-05-12T08:22:23.467Z,9.77
2018-05-12T08:24:53.014Z,11.50
2018-05-12T08:27:22.569Z,10.37
2018-05-12T08:29:52.637Z,8.47
2018-05-12T08:32:22.308Z,12.33
2018-05-12T08:34:52.213Z,10.97
2018-05-12T08:37:21.824Z,10.10
2018-05-12T08:39:52.705Z,12.53
2018-05-12T08:42:22.739Z,10.57
2018-05-12T08:44:53.392Z,9.47
2018-05-12T08:47:23.016Z,12.43
2018-05-12T08:49:53.341Z,9.00
2018-05-12T08:52:22.975Z,9.60
2018-05-12T08:54:53.279Z,9.50
2018-05-12T08:57:22.987Z,10.70
2018-05-12T08:59:52.806Z,8.50
2018-05-12T09:02:22.515Z,11.83
2018-05-12T09:04:53.618Z,10.17
2018-05-12T09:07:24.190Z,9.27
2018-05-12T09:09:54.817Z,10.50
2018-05-12T09:12:24.590Z,10.90
2018-05-12T09:14:54.946Z,8.07
2018-05-12T09:17:25.383Z,10.60
2018-05-12T09:19:55.781Z,9.38
2018-05-12T09:22:25.629Z,8.40
2018-05-12T09:24:55.180Z,8.73
2018-05-12T09:27:24.782Z,10.27
2018-05-12T09:29:54.343Z,8.68
2018-05-12T09:32:24.158Z,10.50
2018-05-12T09:34:53.759Z,8.40
2018-05-12T09:37:23.648Z,10.18
2018-05-12T09:39:53.379Z,9.07
2018-05-12T09:42:22.980Z,11.07
2018-05-12T09:44:52.971Z,10.07
2018-05-12T09:47:22.499Z,8.02
2018-05-12T09:49:52.545Z,9.18
2018-05-12T09:52:22.140Z,10.00
2018-05-12T09:54:52.090Z,9.15
2018-05-12T09:57:21.891Z,9.85
2018-05-12T09:59:51.791Z,10.63
2018-05-12T10:02:22.642Z,7.87
2018-05-12T10:04:53.026Z,9.00
2018-05-12T10:07:22.790Z,10.23
2018-05-12T10:09:52.599Z,8.93
2018-05-12T10:12:22.319Z,8.77
2018-05-12T10:14:52.323Z,10.35
2018-05-12T10:17:22.236Z,8.18
2018-05-12T10:19:52.213Z,7.85
2018-05-12T10:22:23.098Z,8.73
2018-05-12T10:24:53.306Z,8.55
2018-05-12T10:27:23.115Z,8.95
2018-05-12T10:29:53.973Z,9.48
2018-05-12T10:32:23.664Z,8.82
2018-05-12T10:34:53.706Z,8.63
2018-05-12T10:37:23.293Z,10.60
2018-05-12T10:39:53.942Z,9.15
2018-05-12T10:42:23.868Z,9.95
2018-05-12T10:44:54.147Z,8.95
2018-05-12T10:47:23.924Z,8.38
2018-05-12T10:49:54.332Z,9.60
2018-05-12T10:52:23.898Z,9.32
2018-05-12T10:54:54.631Z,7.82
2018-05-12T10:57:24.257Z,8.63
2018-05-12T10:59:53.886Z,8.63
2018-05-12T11:02:23.929Z,10.32
2018-05-12T11:04:54.323Z,8.43
2018-05-12T11:07:23.840Z,8.13
2018-05-12T11:09:53.555Z,9.43
2018-05-12T11:12:23.142Z,9.02
2018-05-12T11:14:52.937Z,7.22
2018-05-12T11:17:22.397Z,8.13
2018-05-12T11:19:54.067Z,7.03
2018-05-12T11:22:23.833Z,8.35
2018-05-12T11:24:53.644Z,9.38
2018-05-12T11:27:23.556Z,8.70
2018-05-12T11:29:53.086Z,7.25
2018-05-12T11:32:22.694Z,6.62
2018-05-12T11:34:53.787Z,7.37
2018-05-12T11:37:23.413Z,7.45
2018-05-12T11:39:53.948Z,7.07
2018-05-12T11:42:23.497Z,7.68
2018-05-12T11:44:53.386Z,6.45
2018-05-12T11:47:22.889Z,7.65
2018-05-12T11:49:52.620Z,9.48
2018-05-12T11:52:23.736Z,8.00
2018-05-12T11:54:53.315Z,9.25
2018-05-12T11:57:24.031Z,6.93
2018-05-12T11:59:54.091Z,9.63
2018-05-12T12:02:23.594Z,6.82
2018-05-12T12:04:54.259Z,9.63
2018-05-12T12:07:23.904Z,6.90
2018-05-12T12:09:53.479Z,6.65
2018-05-12T12:12:22.947Z,6.62
2018-05-12T12:14:52.824Z,8.63
2018-05-12T12:17:23.511Z,7.50
2018-05-12T12:19:54.357Z,7.87
2018-05-12T12:22:23.892Z,8.15
2018-05-12T12:24:53.621Z,10.30
2018-05-12T12:27:24.051Z,7.62
2018-05-12T12:29:54.517Z,7.68
2018-05-12T12:32:24.322Z,7.10
2018-05-12T12:34:54.846Z,8.45
2018-05-12T12:37:24.467Z,7.70
2018-05-12T12:39:54.044Z,7.05
2018-05-12T12:42:23.603Z,8.55
2018-05-12T12:44:53.187Z,9.40
2018-05-12T12:47:22.867Z,7.12
2018-05-12T12:49:52.893Z,7.57
2018-05-12T12:52:32.418Z,6.15
2018-05-12T12:55:01.992Z,7.10
2018-05-12T12:57:31.652Z,7.40
2018-05-12T13:00:01.312Z,7.15
2018-05-12T13:02:32.633Z,6.87
2018-05-12T13:05:02.393Z,6.30
2018-05-12T13:07:33.436Z,8.05
2018-05-12T13:10:04.121Z,8.60
2018-05-12T13:13:00.961Z,6.70
2018-05-12T13:16:02.150Z,7.32
2018-05-12T13:21:57.032Z,10.27
2018-05-12T13:24:27.234Z,10.77
2018-05-12T13:26:57.068Z,7.40
2018-05-12T13:29:26.766Z,10.23
2018-05-12T13:31:56.887Z,8.23
2018-05-12T13:34:26.804Z,8.70
2018-05-12T13:36:56.531Z,7.50
2018-05-12T13:39:26.088Z,9.13
2018-05-12T13:41:55.613Z,9.27
2018-05-12T13:44:25.197Z,7.07
2018-05-12T13:46:55.726Z,6.20
2018-05-12T13:49:25.996Z,7.20
2018-05-12T13:51:55.718Z,8.23
2018-05-12T13:54:25.440Z,10.00
2018-05-12T13:56:55.995Z,7.23
2018-05-12T13:59:26.591Z,10.40
2018-05-12T14:01:56.568Z,8.63
2018-05-12T14:04:27.030Z,9.80
2018-05-12T14:06:56.678Z,11.07
2018-05-12T14:09:27.073Z,10.00
2018-05-12T14:11:56.803Z,11.20
2018-05-12T14:14:27.245Z,10.80
2018-05-12T14:16:57.970Z,15.57
2018-05-12T14:19:27.662Z,11.83
2018-05-12T14:21:57.431Z,13.70
2018-05-12T14:24:28.460Z,17.60
2018-05-12T14:26:59.424Z,12.53
2018-05-12T14:29:31.620Z,16.90
2018-05-12T14:32:01.716Z,15.10
2018-05-12T14:34:31.494Z,13.50
2018-05-12T14:37:06.017Z,18.07
2018-05-12T14:39:36.869Z,19.40
2018-05-12T14:42:07.485Z,12.60
2018-05-12T14:44:40.832Z,11.60
2018-05-12T14:47:10.930Z,12.97
2018-05-12T14:49:41.353Z,16.07
2018-05-12T14:52:11.479Z,12.37
2018-05-12T14:54:41.327Z,11.30
2018-05-12T14:57:11.664Z,11.93
2018-05-12T14:59:41.314Z,9.37
2018-05-12T15:02:11.061Z,9.40
2018-05-12T15:04:41.500Z,7.97
2018-05-12T15:07:11.110Z,8.20
2018-05-12T15:09:41.648Z,7.47
2018-05-12T15:12:11.325Z,10.00
2018-05-12T15:14:41.873Z,8.43
2018-05-12T15:17:11.434Z,8.20
2018-05-12T15:19:41.772Z,9.23
2018-05-12T15:22:12.040Z,8.63
2018-05-12T15:24:41.850Z,11.27
2018-05-12T15:37:24.162Z,6.77
2018-05-12T15:39:54.993Z,8.27
2018-05-12T15:42:24.569Z,7.27
2018-05-12T15:44:54.380Z,14.45
2018-05-12T15:47:23.927Z,10.90
2018-05-12T15:49:54.630Z,12.70
2018-05-12T15:52:24.967Z,11.17
2018-05-12T15:54:54.851Z,10.40
2018-05-12T15:57:24.607Z,9.87
2018-05-12T15:59:54.360Z,9.97
2018-05-12T16:02:23.978Z,8.23
2018-05-12T16:04:53.490Z,7.40
2018-05-12T16:07:23.099Z,6.93
2018-05-12T16:09:53.493Z,7.67
2018-05-12T16:12:24.076Z,9.73
2018-05-12T16:14:55.208Z,8.50
2018-05-12T16:17:24.992Z,10.43
2018-05-12T16:19:54.640Z,10.27
2018-05-12T16:22:25.164Z,10.77
2018-05-12T16:24:54.708Z,12.47
2018-05-12T16:27:25.347Z,8.80
2018-05-12T16:29:54.902Z,7.77
2018-05-12T16:32:24.847Z,6.87
2018-05-12T16:34:54.705Z,5.03
2018-05-12T16:37:24.691Z,5.63
2018-05-12T16:39:55.062Z,4.57
2018-05-12T16:42:26.118Z,4.63
2018-05-12T16:44:55.900Z,7.30
2018-05-12T16:47:27.265Z,7.03
2018-05-12T16:49:56.809Z,4.13
2018-05-12T16:52:26.493Z,6.50
2018-05-12T16:54:57.679Z,7.60
2018-05-12T16:57:27.366Z,8.07
2018-05-12T16:59:57.043Z,10.27
2018-05-12T17:02:26.909Z,12.30
2018-05-12T17:04:57.998Z,15.63
2018-05-12T17:07:28.290Z,15.50
2018-05-12T17:09:59.081Z,12.90
2018-05-12T17:12:28.728Z,15.77
2018-05-12T17:14:59.032Z,19.70
2018-05-12T17:17:31.075Z,15.93
2018-05-12T17:20:06.482Z,12.30
2018-05-12T17:22:37.912Z,10.47
2018-05-12T17:25:07.537Z,10.10
2018-05-12T17:27:38.025Z,9.07
2018-05-12T17:30:08.818Z,13.83
2018-05-12T17:32:38.975Z,10.07
2018-05-12T17:35:08.731Z,15.00
2018-05-12T17:37:39.109Z,9.77
2018-05-12T17:40:08.932Z,13.03
2018-05-12T17:42:38.479Z,53.30
2018-05-12T17:45:08.779Z,19.37
2018-05-12T17:47:41.206Z,17.93
2018-05-12T17:50:11.059Z,13.20
2018-05-12T17:52:41.910Z,14.60
2018-05-12T17:55:11.709Z,17.93
2018-05-12T17:57:41.314Z,20.10
2018-05-12T18:00:11.193Z,30.53
2018-05-12T18:02:40.903Z,34.83
2018-05-12T18:05:11.203Z,39.70
2018-05-12T18:07:40.844Z,37.87
2018-05-12T18:10:10.571Z,29.27
2018-05-12T18:12:41.246Z,15.73
2018-05-12T18:15:11.727Z,19.77
2018-05-12T18:17:41.757Z,20.30
2018-05-12T18:20:12.530Z,33.63
2018-05-12T18:22:42.199Z,35.07
2018-05-12T18:25:11.813Z,45.83
2018-05-12T18:27:41.497Z,41.63
2018-05-12T18:30:11.927Z,25.23
2018-05-12T18:32:43.503Z,29.07
2018-05-12T18:35:13.345Z,21.83
2018-05-12T18:37:45.970Z,26.27
2018-05-12T18:40:18.272Z,18.70
2018-05-12T18:42:48.290Z,17.07
2018-05-12T18:45:27.217Z,14.47
2018-05-12T18:47:57.289Z,17.73
2018-05-12T18:50:26.934Z,19.40
2018-05-12T18:52:56.655Z,18.20
2018-05-12T18:55:27.869Z,33.20
2018-05-12T18:57:58.452Z,29.33
2018-05-12T19:00:32.850Z,21.70
2018-05-12T19:03:03.682Z,18.40
2018-05-12T19:05:34.861Z,17.10
2018-05-12T19:08:05.991Z,14.40
2018-05-12T19:10:36.178Z,12.50
2018-05-12T19:13:08.453Z,14.70
2018-05-12T19:15:40.961Z,13.57
2018-05-12T19:18:11.248Z,19.53
2018-05-12T19:20:41.196Z,16.00
2018-05-12T19:23:11.022Z,16.57
2018-05-12T19:25:40.601Z,18.47
2018-05-12T19:28:10.374Z,15.43
2018-05-12T19:30:40.574Z,14.57
2018-05-12T19:33:10.488Z,16.23
2018-05-12T19:35:40.147Z,21.10
2018-05-12T19:38:10.309Z,22.97
2018-05-12T19:40:40.538Z,22.70
2018-05-12T19:43:12.047Z,23.00
2018-05-12T19:45:42.715Z,17.60
2018-05-12T19:48:13.096Z,16.37
2018-05-12T19:50:43.988Z,12.30
2018-05-12T19:53:17.320Z,14.93
2018-05-12T19:55:47.488Z,13.10
2018-05-12T19:58:17.837Z,20.97
2018-05-12T20:00:47.600Z,62.80
2018-05-12T20:03:17.349Z,784.63
2018-05-12T20:06:20.159Z,1999.90
2018-05-12T20:08:52.089Z,1999.90
2018-05-12T20:11:21.716Z,1999.90
2018-05-12T20:13:51.929Z,67.90
2018-05-12T20:16:21.715Z,28.00
2018-05-12T20:18:51.936Z,44.40
2018-05-12T20:21:22.319Z,50.67
2018-05-12T20:23:52.637Z,1450.93
2018-05-12T20:26:23.335Z,1952.57
2018-05-12T20:28:56.077Z,164.83
2018-05-12T20:31:26.846Z,36.47
2018-05-12T20:33:56.656Z,192.63
2018-05-12T20:36:26.578Z,235.03
2018-05-12T20:38:56.439Z,54.27
2018-05-12T20:41:26.482Z,338.83
2018-05-12T20:44:02.980Z,31.20
2018-05-12T20:46:33.402Z,28.17
2018-05-12T20:49:02.975Z,20.27
2018-05-12T20:51:32.829Z,15.50
2018-05-12T20:54:02.584Z,8.87
2018-05-12T20:56:33.861Z,9.70
2018-05-12T20:59:03.807Z,9.50
2018-05-12T21:01:33.616Z,11.00
2018-05-12T21:04:03.347Z,13.20
2018-05-12T21:06:37.525Z,12.57
2018-05-12T21:09:07.510Z,17.73
2018-05-12T21:11:37.181Z,19.90
2018-05-12T21:14:09.678Z,20.70
2018-05-12T21:16:40.944Z,30.93
2018-05-12T21:19:10.711Z,69.77
2018-05-12T21:21:40.480Z,108.80
2018-05-12T21:24:25.933Z,307.57
2018-05-12T21:40:05.389Z,42.50
2018-05-12T21:42:35.870Z,209.43
2018-05-12T21:45:05.453Z,228.77
2018-05-12T21:47:44.032Z,294.85
2018-05-12T21:50:50.378Z,1483.90
2018-05-12T21:54:07.155Z,1492.03
2018-05-12T22:08:08.089Z,211.97
2018-05-12T22:10:38.001Z,186.17
2018-05-12T22:13:07.811Z,731.20
2018-05-12T22:15:37.670Z,1913.23
2018-05-12T22:18:08.697Z,1371.30
2018-05-12T22:20:39.010Z,1598.37
2018-05-12T22:23:08.897Z,1193.27
2018-05-12T22:25:38.552Z,392.80
2018-05-12T22:28:08.834Z,545.40
2018-05-12T22:30:38.441Z,865.40
2018-05-12T22:33:08.290Z,1059.50
2018-05-12T22:35:38.446Z,518.63
2018-05-12T22:38:08.965Z,878.03
2018-05-12T22:40:38.739Z,831.80
2018-05-12T22:43:08.397Z,657.60
2018-05-12T22:45:38.067Z,981.20
2018-05-12T22:48:08.159Z,1305.10
2018-05-12T22:50:38.104Z,1075.20
2018-05-12T22:53:07.581Z,1298.77
2018-05-12T22:55:37.415Z,702.00
2018-05-12T22:58:08.629Z,783.60
2018-05-12T23:00:38.154Z,912.40
2018-05-12T23:03:08.567Z,1437.43
2018-05-12T23:05:38.969Z,895.17
2018-05-12T23:08:08.824Z,1478.63
2018-05-12T23:10:38.642Z,1015.63
2018-05-12T23:13:08.547Z,801.57
2018-05-12T23:15:38.523Z,627.63
2018-05-12T23:18:08.072Z,383.50
2018-05-12T23:20:37.901Z,787.17
2018-05-12T23:23:08.291Z,560.33
2018-05-12T23:25:38.104Z,759.60
2018-05-12T23:28:08.043Z,724.83
2018-05-12T23:30:38.063Z,653.03
2018-05-12T23:33:07.808Z,715.43
2018-05-12T23:35:37.467Z,843.03
2018-05-12T23:38:07.253Z,585.83
2018-05-12T23:40:37.602Z,770.73
2018-05-12T23:43:08.218Z,805.10
2018-05-12T23:45:38.175Z,1521.57
2018-05-12T23:48:10.316Z,1258.87
2018-05-12T23:50:40.783Z,790.20
2018-05-12T23:53:10.468Z,1176.40
2018-05-12T23:55:40.469Z,886.30
2018-05-12T23:58:10.140Z,780.13
